sensor_id;sensor_type;location;lat;lon;timestamp;P1;durP1;ratioP1;P2;durP2;ratioP2
11222;SDS011;5668;52.012;8.724;2023-11-18T00:01:30;41.53;;;21.63;;
11222;SDS011;5668;52.012;8.724;2023-11-18T00:03:58;38.67;;;21.90;;
11222;SDS011;5668;52.012;8.724;2023-11-18T00:06:26;37.10;;;21.73;;
11222;SDS011;5668;52.012;8.724;2023-11-18T00:08:54;36.73;;;21.40;;
11222;SDS011;5668;52.012;8.724;2023-11-18T00:11:22;35.00;;;20.87;;
11222;SDS011;5668;52.012;8.724;2023-11-18T00:13:49;34.37;;;21.30;;
11222;SDS011;5668;52.012;8.724;2023-11-18T00:16:16;34.00;;;20.43;;
11222;SDS011;5668;52.012;8.724;2023-11-18T00:18:44;34.10;;;19.70;;
11222;SDS011;5668;52.012;8.724;2023-11-18T00:21:11;36.77;;;21.23;;
11222;SDS011;5668;52.012;8.724;2023-11-18T00:23:38;32.13;;;20.33;;
11222;SDS011;5668;52.012;8.724;2023-11-18T00:26:07;34.67;;;20.73;;
11222;SDS011;5668;52.012;8.724;2023-11-18T00:28:35;40.60;;;22.27;;
11222;SDS011;5668;52.012;8.724;2023-11-18T00:31:02;43.27;;;22.90;;
11222;SDS011;5668;52.012;8.724;2023-11-18T00:33:30;40.13;;;22.57;;
11222;SDS011;5668;52.012;8.724;2023-11-18T00:35:58;42.33;;;23.30;;
11222;SDS011;5668;52.012;8.724;2023-11-18T00:38:25;51.43;;;25.00;;
11222;SDS011;5668;52.012;8.724;2023-11-18T00:40:53;46.63;;;23.87;;
11222;SDS011;5668;52.012;8.724;2023-11-18T00:43:21;44.60;;;23.40;;
11222;SDS011;5668;52.012;8.724;2023-11-18T00:45:48;44.37;;;22.50;;
11222;SDS011;5668;52.012;8.724;2023-11-18T00:48:16;37.03;;;21.37;;
11222;SDS011;5668;52.012;8.724;2023-11-18T00:50:44;36.77;;;22.10;;
11222;SDS011;5668;52.012;8.724;2023-11-18T00:53:11;33.83;;;20.93;;
11222;SDS011;5668;52.012;8.724;2023-11-18T00:55:38;33.67;;;19.83;;
11222;SDS011;5668;52.012;8.724;2023-11-18T00:58:06;35.47;;;20.70;;
11222;SDS011;5668;52.012;8.724;2023-11-18T01:00:34;34.80;;;20.30;;
11222;SDS011;5668;52.012;8.724;2023-11-18T01:03:02;38.07;;;20.67;;
11222;SDS011;5668;52.012;8.724;2023-11-18T01:05:29;39.37;;;21.27;;
11222;SDS011;5668;52.012;8.724;2023-11-18T01:07:56;38.10;;;22.70;;
11222;SDS011;5668;52.012;8.724;2023-11-18T01:10:24;47.47;;;23.80;;
11222;SDS011;5668;52.012;8.724;2023-11-18T01:12:52;41.07;;;23.10;;
11222;SDS011;5668;52.012;8.724;2023-11-18T01:15:21;41.70;;;22.90;;
11222;SDS011;5668;52.012;8.724;2023-11-18T01:17:50;39.23;;;23.00;;
11222;SDS011;5668;52.012;8.724;2023-11-18T01:20:17;44.93;;;24.40;;
11222;SDS011;5668;52.012;8.724;2023-11-18T01:22:47;45.50;;;22.90;;
11222;SDS011;5668;52.012;8.724;2023-11-18T01:25:15;43.40;;;23.83;;
11222;SDS011;5668;52.012;8.724;2023-11-18T01:27:43;43.87;;;23.80;;
11222;SDS011;5668;52.012;8.724;2023-11-18T01:30:12;46.70;;;24.20;;
11222;SDS011;5668;52.012;8.724;2023-11-18T01:32:40;42.27;;;24.07;;
11222;SDS011;5668;52.012;8.724;2023-11-18T01:35:09;43.43;;;23.80;;
11222;SDS011;5668;52.012;8.724;2023-11-18T01:37:37;46.90;;;23.40;;
11222;SDS011;5668;52.012;8.724;2023-11-18T01:40:05;43.90;;;23.87;;
11222;SDS011;5668;52.012;8.724;2023-11-18T01:42:37;42.80;;;24.43;;
11222;SDS011;5668;52.012;8.724;2023-11-18T01:45:04;47.10;;;24.33;;
11222;SDS011;5668;52.012;8.724;2023-11-18T01:47:36;51.33;;;26.73;;
11222;SDS011;5668;52.012;8.724;2023-11-18T01:50:05;40.50;;;22.97;;
11222;SDS011;5668;52.012;8.724;2023-11-18T01:52:37;42.20;;;24.03;;
11222;SDS011;5668;52.012;8.724;2023-11-18T01:55:06;44.17;;;23.10;;
11222;SDS011;5668;52.012;8.724;2023-11-18T01:57:35;42.83;;;24.80;;
11222;SDS011;5668;52.012;8.724;2023-11-18T02:00:05;43.13;;;22.83;;
11222;SDS011;5668;52.012;8.724;2023-11-18T02:02:36;42.07;;;24.50;;
11222;SDS011;5668;52.012;8.724;2023-11-18T02:05:04;48.23;;;24.53;;
11222;SDS011;5668;52.012;8.724;2023-11-18T02:07:34;43.70;;;24.17;;
11222;SDS011;5668;52.012;8.724;2023-11-18T02:10:02;47.73;;;24.93;;
11222;SDS011;5668;52.012;8.724;2023-11-18T02:12:36;46.63;;;23.13;;
11222;SDS011;5668;52.012;8.724;2023-11-18T02:15:09;46.80;;;23.37;;
11222;SDS011;5668;52.012;8.724;2023-11-18T02:17:38;44.03;;;24.30;;
11222;SDS011;5668;52.012;8.724;2023-11-18T02:20:08;46.20;;;24.43;;
11222;SDS011;5668;52.012;8.724;2023-11-18T02:22:42;48.37;;;25.97;;
11222;SDS011;5668;52.012;8.724;2023-11-18T02:25:11;47.07;;;23.50;;
11222;SDS011;5668;52.012;8.724;2023-11-18T02:27:44;45.83;;;24.50;;
11222;SDS011;5668;52.012;8.724;2023-11-18T02:30:13;40.80;;;23.37;;
11222;SDS011;5668;52.012;8.724;2023-11-18T02:32:43;37.63;;;21.37;;
11222;SDS011;5668;52.012;8.724;2023-11-18T02:35:18;39.83;;;21.20;;
11222;SDS011;5668;52.012;8.724;2023-11-18T02:37:51;42.47;;;21.27;;
11222;SDS011;5668;52.012;8.724;2023-11-18T02:40:21;38.97;;;21.67;;
11222;SDS011;5668;52.012;8.724;2023-11-18T02:42:56;39.70;;;21.53;;
11222;SDS011;5668;52.012;8.724;2023-11-18T02:45:25;37.00;;;21.33;;
11222;SDS011;5668;52.012;8.724;2023-11-18T02:47:53;37.73;;;21.53;;
11222;SDS011;5668;52.012;8.724;2023-11-18T02:50:22;40.90;;;22.10;;
11222;SDS011;5668;52.012;8.724;2023-11-18T02:52:50;38.57;;;20.90;;
11222;SDS011;5668;52.012;8.724;2023-11-18T02:55:17;37.00;;;21.03;;
11222;SDS011;5668;52.012;8.724;2023-11-18T02:57:46;37.60;;;20.77;;
11222;SDS011;5668;52.012;8.724;2023-11-18T03:02:51;36.13;;;18.97;;
11222;SDS011;5668;52.012;8.724;2023-11-18T03:05:19;31.70;;;18.97;;
11222;SDS011;5668;52.012;8.724;2023-11-18T03:07:46;31.40;;;18.70;;
11222;SDS011;5668;52.012;8.724;2023-11-18T03:10:17;32.17;;;19.23;;
11222;SDS011;5668;52.012;8.724;2023-11-18T03:12:47;31.43;;;17.90;;
11222;SDS011;5668;52.012;8.724;2023-11-18T03:15:14;28.90;;;18.00;;
11222;SDS011;5668;52.012;8.724;2023-11-18T03:17:43;29.70;;;16.70;;
11222;SDS011;5668;52.012;8.724;2023-11-18T03:20:13;27.80;;;16.63;;
11222;SDS011;5668;52.012;8.724;2023-11-18T03:22:42;26.17;;;16.60;;
11222;SDS011;5668;52.012;8.724;2023-11-18T03:25:10;21.63;;;15.07;;
11222;SDS011;5668;52.012;8.724;2023-11-18T03:27:37;20.50;;;14.70;;
11222;SDS011;5668;52.012;8.724;2023-11-18T03:30:05;21.10;;;15.17;;
11222;SDS011;5668;52.012;8.724;2023-11-18T03:32:33;21.00;;;14.83;;
11222;SDS011;5668;52.012;8.724;2023-11-18T03:35:01;21.53;;;14.90;;
11222;SDS011;5668;52.012;8.724;2023-11-18T03:37:30;19.87;;;14.63;;
11222;SDS011;5668;52.012;8.724;2023-11-18T03:39:58;19.40;;;14.80;;
11222;SDS011;5668;52.012;8.724;2023-11-18T03:42:25;22.87;;;15.33;;
11222;SDS011;5668;52.012;8.724;2023-11-18T03:44:54;20.23;;;14.33;;
11222;SDS011;5668;52.012;8.724;2023-11-18T03:47:22;25.03;;;15.83;;
11222;SDS011;5668;52.012;8.724;2023-11-18T03:49:50;25.43;;;16.30;;
11222;SDS011;5668;52.012;8.724;2023-11-18T03:52:19;25.27;;;16.73;;
11222;SDS011;5668;52.012;8.724;2023-11-18T03:54:48;25.40;;;17.37;;
11222;SDS011;5668;52.012;8.724;2023-11-18T03:57:15;29.03;;;16.97;;
11222;SDS011;5668;52.012;8.724;2023-11-18T03:59:43;29.77;;;17.57;;
11222;SDS011;5668;52.012;8.724;2023-11-18T04:02:10;26.67;;;17.80;;
11222;SDS011;5668;52.012;8.724;2023-11-18T04:04:37;29.17;;;18.63;;
11222;SDS011;5668;52.012;8.724;2023-11-18T04:07:05;28.70;;;17.33;;
11222;SDS011;5668;52.012;8.724;2023-11-18T04:09:32;28.57;;;18.33;;
11222;SDS011;5668;52.012;8.724;2023-11-18T04:12:01;30.23;;;18.97;;
11222;SDS011;5668;52.012;8.724;2023-11-18T04:14:30;29.23;;;19.07;;
11222;SDS011;5668;52.012;8.724;2023-11-18T04:16:57;32.63;;;19.73;;
11222;SDS011;5668;52.012;8.724;2023-11-18T04:19:25;31.33;;;19.10;;
11222;SDS011;5668;52.012;8.724;2023-11-18T04:21:52;29.70;;;18.90;;
11222;SDS011;5668;52.012;8.724;2023-11-18T04:24:19;31.23;;;19.50;;
11222;SDS011;5668;52.012;8.724;2023-11-18T04:26:46;28.37;;;18.67;;
11222;SDS011;5668;52.012;8.724;2023-11-18T04:29:15;27.13;;;18.70;;
11222;SDS011;5668;52.012;8.724;2023-11-18T04:31:43;26.20;;;17.80;;
11222;SDS011;5668;52.012;8.724;2023-11-18T04:34:10;25.50;;;17.30;;
11222;SDS011;5668;52.012;8.724;2023-11-18T04:36:40;25.53;;;18.00;;
11222;SDS011;5668;52.012;8.724;2023-11-18T04:39:07;23.33;;;17.40;;
11222;SDS011;5668;52.012;8.724;2023-11-18T04:41:36;25.97;;;17.07;;
11222;SDS011;5668;52.012;8.724;2023-11-18T04:44:04;23.47;;;17.27;;
11222;SDS011;5668;52.012;8.724;2023-11-18T04:46:33;23.20;;;17.00;;
11222;SDS011;5668;52.012;8.724;2023-11-18T04:49:01;21.43;;;16.43;;
11222;SDS011;5668;52.012;8.724;2023-11-18T04:51:30;20.93;;;16.27;;
11222;SDS011;5668;52.012;8.724;2023-11-18T04:53:58;21.67;;;16.53;;
11222;SDS011;5668;52.012;8.724;2023-11-18T04:56:25;18.57;;;15.20;;
11222;SDS011;5668;52.012;8.724;2023-11-18T04:58:52;20.67;;;15.77;;
11222;SDS011;5668;52.012;8.724;2023-11-18T05:01:19;19.50;;;15.33;;
11222;SDS011;5668;52.012;8.724;2023-11-18T05:03:48;19.03;;;15.30;;
11222;SDS011;5668;52.012;8.724;2023-11-18T05:06:15;19.77;;;15.53;;
11222;SDS011;5668;52.012;8.724;2023-11-18T05:08:45;20.93;;;16.33;;
11222;SDS011;5668;52.012;8.724;2023-11-18T05:11:12;20.13;;;15.43;;
11222;SDS011;5668;52.012;8.724;2023-11-18T05:13:39;20.43;;;16.30;;
11222;SDS011;5668;52.012;8.724;2023-11-18T05:16:07;20.43;;;16.23;;
11222;SDS011;5668;52.012;8.724;2023-11-18T05:18:35;21.57;;;16.40;;
11222;SDS011;5668;52.012;8.724;2023-11-18T05:21:05;20.10;;;16.17;;
11222;SDS011;5668;52.012;8.724;2023-11-18T05:23:33;19.13;;;15.53;;
11222;SDS011;5668;52.012;8.724;2023-11-18T05:26:01;18.03;;;14.80;;
11222;SDS011;5668;52.012;8.724;2023-11-18T05:28:29;20.83;;;16.00;;
11222;SDS011;5668;52.012;8.724;2023-11-18T05:30:57;18.10;;;15.07;;
11222;SDS011;5668;52.012;8.724;2023-11-18T05:33:26;18.30;;;15.03;;
11222;SDS011;5668;52.012;8.724;2023-11-18T05:35:55;20.13;;;14.73;;
11222;SDS011;5668;52.012;8.724;2023-11-18T05:38:23;19.07;;;15.13;;
11222;SDS011;5668;52.012;8.724;2023-11-18T05:40:53;19.23;;;14.53;;
11222;SDS011;5668;52.012;8.724;2023-11-18T05:43:22;20.70;;;14.23;;
11222;SDS011;5668;52.012;8.724;2023-11-18T05:45:51;17.07;;;13.63;;
11222;SDS011;5668;52.012;8.724;2023-11-18T05:48:35;16.93;;;14.20;;
11222;SDS011;5668;52.012;8.724;2023-11-18T05:51:03;18.37;;;13.80;;
11222;SDS011;5668;52.012;8.724;2023-11-18T05:53:32;18.27;;;14.27;;
11222;SDS011;5668;52.012;8.724;2023-11-18T05:56:01;17.40;;;14.10;;
11222;SDS011;5668;52.012;8.724;2023-11-18T05:58:31;18.13;;;13.97;;
11222;SDS011;5668;52.012;8.724;2023-11-18T06:00:58;19.03;;;14.47;;
11222;SDS011;5668;52.012;8.724;2023-11-18T06:03:26;18.00;;;14.07;;
11222;SDS011;5668;52.012;8.724;2023-11-18T06:05:53;18.90;;;14.57;;
11222;SDS011;5668;52.012;8.724;2023-11-18T06:08:21;17.73;;;14.03;;
11222;SDS011;5668;52.012;8.724;2023-11-18T06:10:50;18.40;;;14.33;;
11222;SDS011;5668;52.012;8.724;2023-11-18T06:13:21;17.73;;;12.80;;
11222;SDS011;5668;52.012;8.724;2023-11-18T06:15:49;18.33;;;14.03;;
11222;SDS011;5668;52.012;8.724;2023-11-18T06:18:16;16.87;;;13.60;;
11222;SDS011;5668;52.012;8.724;2023-11-18T06:20:44;18.67;;;14.07;;
11222;SDS011;5668;52.012;8.724;2023-11-18T06:23:11;17.13;;;12.53;;
11222;SDS011;5668;52.012;8.724;2023-11-18T06:25:40;19.43;;;13.90;;
11222;SDS011;5668;52.012;8.724;2023-11-18T06:28:09;16.37;;;12.97;;
11222;SDS011;5668;52.012;8.724;2023-11-18T06:30:36;19.20;;;13.13;;
11222;SDS011;5668;52.012;8.724;2023-11-18T06:33:04;20.90;;;13.87;;
11222;SDS011;5668;52.012;8.724;2023-11-18T06:35:31;20.53;;;13.67;;
11222;SDS011;5668;52.012;8.724;2023-11-18T06:37:59;19.33;;;14.73;;
11222;SDS011;5668;52.012;8.724;2023-11-18T06:40:27;19.67;;;13.73;;
11222;SDS011;5668;52.012;8.724;2023-11-18T06:42:55;20.77;;;15.50;;
11222;SDS011;5668;52.012;8.724;2023-11-18T06:45:28;19.57;;;14.53;;
11222;SDS011;5668;52.012;8.724;2023-11-18T06:47:57;21.53;;;14.47;;
11222;SDS011;5668;52.012;8.724;2023-11-18T06:50:24;23.80;;;16.53;;
11222;SDS011;5668;52.012;8.724;2023-11-18T06:52:52;22.30;;;15.43;;
11222;SDS011;5668;52.012;8.724;2023-11-18T06:55:19;21.57;;;15.23;;
11222;SDS011;5668;52.012;8.724;2023-11-18T06:57:46;19.30;;;14.27;;
11222;SDS011;5668;52.012;8.724;2023-11-18T07:00:14;21.57;;;15.17;;
11222;SDS011;5668;52.012;8.724;2023-11-18T07:02:43;21.87;;;15.13;;
11222;SDS011;5668;52.012;8.724;2023-11-18T07:05:12;22.37;;;15.43;;
11222;SDS011;5668;52.012;8.724;2023-11-18T07:07:39;21.77;;;14.33;;
11222;SDS011;5668;52.012;8.724;2023-11-18T07:10:08;20.27;;;15.43;;
11222;SDS011;5668;52.012;8.724;2023-11-18T07:12:38;20.87;;;14.57;;
11222;SDS011;5668;52.012;8.724;2023-11-18T07:15:06;20.97;;;13.77;;
11222;SDS011;5668;52.012;8.724;2023-11-18T07:17:35;21.70;;;14.70;;
11222;SDS011;5668;52.012;8.724;2023-11-18T07:20:05;19.93;;;13.90;;
11222;SDS011;5668;52.012;8.724;2023-11-18T07:22:36;19.30;;;14.37;;
11222;SDS011;5668;52.012;8.724;2023-11-18T07:25:04;20.97;;;14.67;;
11222;SDS011;5668;52.012;8.724;2023-11-18T07:27:34;20.27;;;15.20;;
11222;SDS011;5668;52.012;8.724;2023-11-18T07:30:02;18.87;;;14.50;;
11222;SDS011;5668;52.012;8.724;2023-11-18T07:32:35;20.73;;;14.73;;
11222;SDS011;5668;52.012;8.724;2023-11-18T07:35:05;22.17;;;14.27;;
11222;SDS011;5668;52.012;8.724;2023-11-18T07:37:34;20.60;;;15.00;;
11222;SDS011;5668;52.012;8.724;2023-11-18T07:40:02;19.87;;;14.03;;
11222;SDS011;5668;52.012;8.724;2023-11-18T07:42:31;19.37;;;14.03;;
11222;SDS011;5668;52.012;8.724;2023-11-18T07:45:00;19.43;;;14.10;;
11222;SDS011;5668;52.012;8.724;2023-11-18T07:47:29;21.13;;;13.10;;
11222;SDS011;5668;52.012;8.724;2023-11-18T07:49:57;19.23;;;14.03;;
11222;SDS011;5668;52.012;8.724;2023-11-18T07:52:26;18.53;;;13.63;;
11222;SDS011;5668;52.012;8.724;2023-11-18T07:54:54;18.33;;;13.70;;
11222;SDS011;5668;52.012;8.724;2023-11-18T07:57:21;17.40;;;13.47;;
11222;SDS011;5668;52.012;8.724;2023-11-18T07:59:49;18.13;;;13.33;;
11222;SDS011;5668;52.012;8.724;2023-11-18T08:02:20;19.63;;;14.47;;
11222;SDS011;5668;52.012;8.724;2023-11-18T08:04:48;19.80;;;13.80;;
11222;SDS011;5668;52.012;8.724;2023-11-18T08:07:15;17.50;;;13.57;;
11222;SDS011;5668;52.012;8.724;2023-11-18T08:09:45;22.53;;;15.30;;
11222;SDS011;5668;52.012;8.724;2023-11-18T08:12:12;18.40;;;13.63;;
11222;SDS011;5668;52.012;8.724;2023-11-18T08:14:40;18.87;;;14.17;;
11222;SDS011;5668;52.012;8.724;2023-11-18T08:17:08;18.17;;;14.50;;
11222;SDS011;5668;52.012;8.724;2023-11-18T08:19:35;17.77;;;14.10;;
11222;SDS011;5668;52.012;8.724;2023-11-18T08:22:03;16.70;;;13.33;;
11222;SDS011;5668;52.012;8.724;2023-11-18T08:24:31;19.50;;;14.30;;
11222;SDS011;5668;52.012;8.724;2023-11-18T08:27:00;20.10;;;13.60;;
11222;SDS011;5668;52.012;8.724;2023-11-18T08:29:28;17.97;;;13.60;;
11222;SDS011;5668;52.012;8.724;2023-11-18T08:31:57;19.13;;;14.00;;
11222;SDS011;5668;52.012;8.724;2023-11-18T08:34:24;16.30;;;13.10;;
11222;SDS011;5668;52.012;8.724;2023-11-18T08:36:51;17.40;;;13.53;;
11222;SDS011;5668;52.012;8.724;2023-11-18T08:39:19;17.00;;;13.40;;
11222;SDS011;5668;52.012;8.724;2023-11-18T08:41:50;18.00;;;13.70;;
11222;SDS011;5668;52.012;8.724;2023-11-18T08:44:19;17.30;;;12.87;;
11222;SDS011;5668;52.012;8.724;2023-11-18T08:46:47;17.50;;;13.17;;
11222;SDS011;5668;52.012;8.724;2023-11-18T08:49:17;18.00;;;13.07;;
11222;SDS011;5668;52.012;8.724;2023-11-18T08:51:46;17.97;;;12.80;;
11222;SDS011;5668;52.012;8.724;2023-11-18T08:54:14;17.30;;;12.60;;
11222;SDS011;5668;52.012;8.724;2023-11-18T08:56:50;18.20;;;12.83;;
11222;SDS011;5668;52.012;8.724;2023-11-18T08:59:19;17.40;;;12.70;;
11222;SDS011;5668;52.012;8.724;2023-11-18T09:01:50;16.93;;;12.47;;
11222;SDS011;5668;52.012;8.724;2023-11-18T09:04:20;17.97;;;12.57;;
11222;SDS011;5668;52.012;8.724;2023-11-18T09:06:48;15.93;;;12.50;;
11222;SDS011;5668;52.012;8.724;2023-11-18T09:09:18;18.13;;;12.23;;
11222;SDS011;5668;52.012;8.724;2023-11-18T09:11:51;14.47;;;11.83;;
11222;SDS011;5668;52.012;8.724;2023-11-18T09:14:22;15.43;;;11.93;;
11222;SDS011;5668;52.012;8.724;2023-11-18T09:16:51;18.03;;;12.30;;
11222;SDS011;5668;52.012;8.724;2023-11-18T09:19:20;17.83;;;13.13;;
11222;SDS011;5668;52.012;8.724;2023-11-18T09:21:47;15.70;;;12.17;;
11222;SDS011;5668;52.012;8.724;2023-11-18T09:24:16;15.67;;;11.80;;
11222;SDS011;5668;52.012;8.724;2023-11-18T09:26:45;15.13;;;12.40;;
11222;SDS011;5668;52.012;8.724;2023-11-18T09:29:15;15.83;;;12.27;;
11222;SDS011;5668;52.012;8.724;2023-11-18T09:31:44;15.37;;;12.43;;
11222;SDS011;5668;52.012;8.724;2023-11-18T09:34:14;14.43;;;11.90;;
11222;SDS011;5668;52.012;8.724;2023-11-18T09:36:42;12.73;;;10.87;;
11222;SDS011;5668;52.012;8.724;2023-11-18T09:39:09;12.90;;;11.47;;
11222;SDS011;5668;52.012;8.724;2023-11-18T09:41:54;13.67;;;10.63;;
11222;SDS011;5668;52.012;8.724;2023-11-18T09:44:21;14.00;;;10.97;;
11222;SDS011;5668;52.012;8.724;2023-11-18T09:46:54;13.00;;;11.03;;
11222;SDS011;5668;52.012;8.724;2023-11-18T09:49:29;13.67;;;11.00;;
11222;SDS011;5668;52.012;8.724;2023-11-18T09:52:04;12.23;;;10.93;;
11222;SDS011;5668;52.012;8.724;2023-11-18T09:54:33;16.43;;;12.33;;
11222;SDS011;5668;52.012;8.724;2023-11-18T09:57:07;12.73;;;10.00;;
11222;SDS011;5668;52.012;8.724;2023-11-18T09:59:42;13.10;;;11.20;;
11222;SDS011;5668;52.012;8.724;2023-11-18T10:02:21;15.57;;;12.27;;
11222;SDS011;5668;52.012;8.724;2023-11-18T10:04:50;13.90;;;10.97;;
11222;SDS011;5668;52.012;8.724;2023-11-18T10:07:22;12.77;;;11.17;;
11222;SDS011;5668;52.012;8.724;2023-11-18T10:09:52;13.53;;;11.40;;
11222;SDS011;5668;52.012;8.724;2023-11-18T10:12:22;13.40;;;11.00;;
11222;SDS011;5668;52.012;8.724;2023-11-18T10:14:51;15.70;;;12.50;;
11222;SDS011;5668;52.012;8.724;2023-11-18T10:17:18;13.00;;;11.43;;
11222;SDS011;5668;52.012;8.724;2023-11-18T10:19:50;12.87;;;10.73;;
11222;SDS011;5668;52.012;8.724;2023-11-18T10:22:24;12.17;;;10.73;;
11222;SDS011;5668;52.012;8.724;2023-11-18T10:31:37;11.60;;;10.40;;
11222;SDS011;5668;52.012;8.724;2023-11-18T10:34:11;12.30;;;11.00;;
11222;SDS011;5668;52.012;8.724;2023-11-18T10:36:41;13.87;;;11.33;;
11222;SDS011;5668;52.012;8.724;2023-11-18T10:39:27;12.93;;;10.50;;
11222;SDS011;5668;52.012;8.724;2023-11-18T10:41:57;12.57;;;11.00;;
11222;SDS011;5668;52.012;8.724;2023-11-18T10:44:25;13.10;;;10.63;;
11222;SDS011;5668;52.012;8.724;2023-11-18T10:46:54;11.67;;;10.50;;
11222;SDS011;5668;52.012;8.724;2023-11-18T10:49:24;12.07;;;10.63;;
11222;SDS011;5668;52.012;8.724;2023-11-18T10:51:54;11.67;;;9.97;;
11222;SDS011;5668;52.012;8.724;2023-11-18T10:54:22;11.60;;;10.27;;
11222;SDS011;5668;52.012;8.724;2023-11-18T10:56:51;11.40;;;10.23;;
11222;SDS011;5668;52.012;8.724;2023-11-18T10:59:21;11.00;;;9.73;;
11222;SDS011;5668;52.012;8.724;2023-11-18T11:01:50;12.27;;;10.50;;
11222;SDS011;5668;52.012;8.724;2023-11-18T11:04:17;11.23;;;10.03;;
11222;SDS011;5668;52.012;8.724;2023-11-18T11:06:48;12.07;;;10.67;;
11222;SDS011;5668;52.012;8.724;2023-11-18T11:09:21;11.77;;;10.57;;
11222;SDS011;5668;52.012;8.724;2023-11-18T11:11:53;12.63;;;11.20;;
11222;SDS011;5668;52.012;8.724;2023-11-18T11:14:24;13.00;;;10.83;;
11222;SDS011;5668;52.012;8.724;2023-11-18T11:17:00;14.20;;;11.13;;
11222;SDS011;5668;52.012;8.724;2023-11-18T11:19:38;12.00;;;10.43;;
11222;SDS011;5668;52.012;8.724;2023-11-18T11:22:22;11.47;;;10.17;;
11222;SDS011;5668;52.012;8.724;2023-11-18T11:25:03;11.60;;;10.03;;
11222;SDS011;5668;52.012;8.724;2023-11-18T11:27:38;12.40;;;10.77;;
11222;SDS011;5668;52.012;8.724;2023-11-18T11:30:20;13.33;;;10.80;;
11222;SDS011;5668;52.012;8.724;2023-11-18T11:32:50;11.63;;;10.30;;
11222;SDS011;5668;52.012;8.724;2023-11-18T11:35:22;11.93;;;10.00;;
11222;SDS011;5668;52.012;8.724;2023-11-18T11:37:56;13.97;;;10.73;;
11222;SDS011;5668;52.012;8.724;2023-11-18T11:40:34;12.80;;;10.93;;
11222;SDS011;5668;52.012;8.724;2023-11-18T11:43:04;11.90;;;10.70;;
11222;SDS011;5668;52.012;8.724;2023-11-18T11:45:35;10.77;;;9.67;;
11222;SDS011;5668;52.012;8.724;2023-11-18T11:48:04;11.47;;;10.37;;
11222;SDS011;5668;52.012;8.724;2023-11-18T11:50:55;12.53;;;10.10;;
11222;SDS011;5668;52.012;8.724;2023-11-18T11:53:41;13.70;;;12.30;;
11222;SDS011;5668;52.012;8.724;2023-11-18T11:56:13;13.13;;;11.60;;
11222;SDS011;5668;52.012;8.724;2023-11-18T11:58:46;13.43;;;10.30;;
11222;SDS011;5668;52.012;8.724;2023-11-18T12:01:27;12.63;;;11.23;;
11222;SDS011;5668;52.012;8.724;2023-11-18T12:04:02;14.13;;;11.10;;
11222;SDS011;5668;52.012;8.724;2023-11-18T12:06:36;12.73;;;10.40;;
11222;SDS011;5668;52.012;8.724;2023-11-18T12:09:10;13.07;;;10.47;;
11222;SDS011;5668;52.012;8.724;2023-11-18T12:11:44;11.90;;;10.57;;
11222;SDS011;5668;52.012;8.724;2023-11-18T12:14:14;13.13;;;10.93;;
11222;SDS011;5668;52.012;8.724;2023-11-18T12:17:03;13.23;;;11.00;;
11222;SDS011;5668;52.012;8.724;2023-11-18T12:19:35;11.73;;;10.60;;
11222;SDS011;5668;52.012;8.724;2023-11-18T12:22:11;12.67;;;10.43;;
11222;SDS011;5668;52.012;8.724;2023-11-18T12:24:46;12.80;;;10.67;;
11222;SDS011;5668;52.012;8.724;2023-11-18T12:27:43;14.87;;;10.87;;
11222;SDS011;5668;52.012;8.724;2023-11-18T12:33:17;12.97;;;10.40;;
11222;SDS011;5668;52.012;8.724;2023-11-18T12:39:02;12.07;;;10.63;;
11222;SDS011;5668;52.012;8.724;2023-11-18T12:42:02;12.90;;;10.67;;
11222;SDS011;5668;52.012;8.724;2023-11-18T12:44:37;13.10;;;10.93;;
11222;SDS011;5668;52.012;8.724;2023-11-18T12:47:17;11.97;;;10.40;;
11222;SDS011;5668;52.012;8.724;2023-11-18T12:49:53;12.10;;;10.63;;
11222;SDS011;5668;52.012;8.724;2023-11-18T12:52:21;13.93;;;11.30;;
11222;SDS011;5668;52.012;8.724;2023-11-18T12:54:49;12.47;;;10.90;;
11222;SDS011;5668;52.012;8.724;2023-11-18T12:57:18;13.83;;;11.03;;
11222;SDS011;5668;52.012;8.724;2023-11-18T12:59:48;12.33;;;11.13;;
11222;SDS011;5668;52.012;8.724;2023-11-18T13:02:16;13.03;;;11.57;;
11222;SDS011;5668;52.012;8.724;2023-11-18T13:04:44;13.57;;;11.20;;
11222;SDS011;5668;52.012;8.724;2023-11-18T13:07:14;13.60;;;11.17;;
11222;SDS011;5668;52.012;8.724;2023-11-18T13:09:42;12.70;;;11.40;;
11222;SDS011;5668;52.012;8.724;2023-11-18T13:12:11;13.50;;;11.00;;
11222;SDS011;5668;52.012;8.724;2023-11-18T13:14:42;12.23;;;10.97;;
11222;SDS011;5668;52.012;8.724;2023-11-18T13:17:11;12.37;;;10.57;;
11222;SDS011;5668;52.012;8.724;2023-11-18T13:19:41;11.97;;;9.90;;
11222;SDS011;5668;52.012;8.724;2023-11-18T13:22:09;12.77;;;9.60;;
11222;SDS011;5668;52.012;8.724;2023-11-18T13:24:37;10.40;;;9.30;;
11222;SDS011;5668;52.012;8.724;2023-11-18T13:27:06;10.43;;;8.77;;
11222;SDS011;5668;52.012;8.724;2023-11-18T13:29:34;9.60;;;8.27;;
11222;SDS011;5668;52.012;8.724;2023-11-18T13:32:06;8.00;;;7.00;;
11222;SDS011;5668;52.012;8.724;2023-11-18T13:34:36;8.53;;;7.30;;
11222;SDS011;5668;52.012;8.724;2023-11-18T13:37:07;8.53;;;7.07;;
11222;SDS011;5668;52.012;8.724;2023-11-18T13:39:35;10.73;;;7.40;;
11222;SDS011;5668;52.012;8.724;2023-11-18T13:42:17;9.00;;;7.30;;
11222;SDS011;5668;52.012;8.724;2023-11-18T13:44:45;11.53;;;7.43;;
11222;SDS011;5668;52.012;8.724;2023-11-18T13:47:17;11.30;;;7.83;;
11222;SDS011;5668;52.012;8.724;2023-11-18T13:49:45;10.03;;;8.07;;
11222;SDS011;5668;52.012;8.724;2023-11-18T13:52:15;10.03;;;8.33;;
11222;SDS011;5668;52.012;8.724;2023-11-18T13:54:44;9.43;;;8.27;;
11222;SDS011;5668;52.012;8.724;2023-11-18T13:57:12;20.50;;;18.50;;
11222;SDS011;5668;52.012;8.724;2023-11-18T13:59:40;18.17;;;15.90;;
11222;SDS011;5668;52.012;8.724;2023-11-18T14:02:09;17.73;;;16.10;;
11222;SDS011;5668;52.012;8.724;2023-11-18T14:04:39;12.00;;;10.63;;
11222;SDS011;5668;52.012;8.724;2023-11-18T14:07:08;13.70;;;10.00;;
11222;SDS011;5668;52.012;8.724;2023-11-18T14:09:37;11.47;;;9.27;;
11222;SDS011;5668;52.012;8.724;2023-11-18T14:12:05;10.83;;;9.50;;
11222;SDS011;5668;52.012;8.724;2023-11-18T14:14:34;8.53;;;7.40;;
11222;SDS011;5668;52.012;8.724;2023-11-18T14:17:02;7.20;;;6.33;;
11222;SDS011;5668;52.012;8.724;2023-11-18T14:19:31;6.97;;;5.97;;
11222;SDS011;5668;52.012;8.724;2023-11-18T14:22:02;6.93;;;5.87;;
11222;SDS011;5668;52.012;8.724;2023-11-18T14:24:31;7.20;;;5.40;;
11222;SDS011;5668;52.012;8.724;2023-11-18T14:27:00;7.07;;;5.60;;
11222;SDS011;5668;52.012;8.724;2023-11-18T14:29:29;7.27;;;6.07;;
11222;SDS011;5668;52.012;8.724;2023-11-18T14:31:56;6.93;;;6.23;;
11222;SDS011;5668;52.012;8.724;2023-11-18T14:34:24;7.27;;;6.10;;
11222;SDS011;5668;52.012;8.724;2023-11-18T14:36:52;6.70;;;5.70;;
11222;SDS011;5668;52.012;8.724;2023-11-18T14:39:20;6.50;;;5.80;;
11222;SDS011;5668;52.012;8.724;2023-11-18T14:41:48;6.00;;;5.33;;
11222;SDS011;5668;52.012;8.724;2023-11-18T14:44:16;5.63;;;5.13;;
11222;SDS011;5668;52.012;8.724;2023-11-18T14:46:43;6.27;;;5.37;;
11222;SDS011;5668;52.012;8.724;2023-11-18T14:49:12;5.93;;;5.07;;
11222;SDS011;5668;52.012;8.724;2023-11-18T14:51:39;4.97;;;4.13;;
11222;SDS011;5668;52.012;8.724;2023-11-18T14:54:08;4.93;;;4.07;;
11222;SDS011;5668;52.012;8.724;2023-11-18T14:56:37;6.30;;;4.27;;
11222;SDS011;5668;52.012;8.724;2023-11-18T14:59:04;7.00;;;4.27;;
11222;SDS011;5668;52.012;8.724;2023-11-18T15:01:33;4.93;;;4.23;;
11222;SDS011;5668;52.012;8.724;2023-11-18T15:04:00;5.50;;;4.30;;
11222;SDS011;5668;52.012;8.724;2023-11-18T15:06:30;6.20;;;4.27;;
11222;SDS011;5668;52.012;8.724;2023-11-18T15:08:57;6.83;;;5.47;;